sensor_id;sensor_type;location;lat;lon;timestamp;P1;durP1;ratioP1;P2;durP2;ratioP2
42948;SDS011;28587;46.794;23.594;2022-12-29T00:01:17;18.70;;;16.80;;
42948;SDS011;28587;46.794;23.594;2022-12-29T00:06:18;20.88;;;18.30;;
42948;SDS011;28587;46.794;23.594;2022-12-29T00:11:20;20.48;;;18.27;;
42948;SDS011;28587;46.794;23.594;2022-12-29T00:16:23;19.02;;;17.00;;
42948;SDS011;28587;46.794;23.594;2022-12-29T00:21:24;19.77;;;16.58;;
42948;SDS011;28587;46.794;23.594;2022-12-29T00:26:45;19.08;;;17.08;;
42948;SDS011;28587;46.794;23.594;2022-12-29T00:32:07;19.40;;;17.30;;
42948;SDS011;28587;46.794;23.594;2022-12-29T00:37:28;18.70;;;15.65;;
42948;SDS011;28587;46.794;23.594;2022-12-29T00:42:47;19.75;;;17.35;;
42948;SDS011;28587;46.794;23.594;2022-12-29T00:48:07;19.15;;;16.60;;
42948;SDS011;28587;46.794;23.594;2022-12-29T00:53:07;20.45;;;17.65;;
42948;SDS011;28587;46.794;23.594;2022-12-29T00:58:09;18.52;;;16.63;;
42948;SDS011;28587;46.794;23.594;2022-12-29T01:03:10;18.42;;;16.52;;
42948;SDS011;28587;46.794;23.594;2022-12-29T01:08:11;18.60;;;16.70;;
42948;SDS011;28587;46.794;23.594;2022-12-29T01:13:12;17.90;;;15.57;;
42948;SDS011;28587;46.794;23.594;2022-12-29T01:18:13;18.88;;;16.88;;
42948;SDS011;28587;46.794;23.594;2022-12-29T01:23:13;17.52;;;15.73;;
42948;SDS011;28587;46.794;23.594;2022-12-29T01:28:14;18.70;;;16.67;;
42948;SDS011;28587;46.794;23.594;2022-12-29T01:33:15;18.15;;;16.35;;
42948;SDS011;28587;46.794;23.594;2022-12-29T01:38:16;17.80;;;15.75;;
42948;SDS011;28587;46.794;23.594;2022-12-29T01:43:18;18.48;;;16.35;;
42948;SDS011;28587;46.794;23.594;2022-12-29T01:48:19;16.65;;;14.95;;
42948;SDS011;28587;46.794;23.594;2022-12-29T01:53:22;16.95;;;15.15;;
42948;SDS011;28587;46.794;23.594;2022-12-29T01:58:29;17.08;;;15.30;;
42948;SDS011;28587;46.794;23.594;2022-12-29T02:03:33;18.98;;;16.40;;
42948;SDS011;28587;46.794;23.594;2022-12-29T02:08:35;17.77;;;15.77;;
42948;SDS011;28587;46.794;23.594;2022-12-29T02:13:38;17.90;;;16.10;;
42948;SDS011;28587;46.794;23.594;2022-12-29T02:35:01;17.40;;;15.60;;
42948;SDS011;28587;46.794;23.594;2022-12-29T02:40:54;17.45;;;15.65;;
42948;SDS011;28587;46.794;23.594;2022-12-29T02:56:02;17.55;;;15.68;;
42948;SDS011;28587;46.794;23.594;2022-12-29T03:06:30;17.25;;;15.45;;
42948;SDS011;28587;46.794;23.594;2022-12-29T03:11:41;17.23;;;15.43;;
42948;SDS011;28587;46.794;23.594;2022-12-29T03:17:09;18.38;;;16.23;;
42948;SDS011;28587;46.794;23.594;2022-12-29T03:22:22;17.15;;;15.38;;
42948;SDS011;28587;46.794;23.594;2022-12-29T03:27:34;17.00;;;15.20;;
42948;SDS011;28587;46.794;23.594;2022-12-29T03:32:42;17.90;;;15.57;;
42948;SDS011;28587;46.794;23.594;2022-12-29T03:37:53;16.30;;;14.60;;
42948;SDS011;28587;46.794;23.594;2022-12-29T03:43:00;18.52;;;15.27;;
42948;SDS011;28587;46.794;23.594;2022-12-29T03:48:04;18.77;;;15.85;;
42948;SDS011;28587;46.794;23.594;2022-12-29T03:53:06;16.83;;;15.13;;
42948;SDS011;28587;46.794;23.594;2022-12-29T03:58:07;18.20;;;15.18;;
42948;SDS011;28587;46.794;23.594;2022-12-29T04:03:27;16.95;;;15.15;;
42948;SDS011;28587;46.794;23.594;2022-12-29T04:08:28;17.73;;;15.40;;
42948;SDS011;28587;46.794;23.594;2022-12-29T04:13:29;16.45;;;14.85;;
42948;SDS011;28587;46.794;23.594;2022-12-29T04:18:30;16.13;;;14.40;;
42948;SDS011;28587;46.794;23.594;2022-12-29T04:23:32;17.05;;;15.23;;
42948;SDS011;28587;46.794;23.594;2022-12-29T04:28:36;14.82;;;13.30;;
42948;SDS011;28587;46.794;23.594;2022-12-29T04:34:01;15.40;;;13.80;;
42948;SDS011;28587;46.794;23.594;2022-12-29T04:39:03;16.50;;;14.77;;
42948;SDS011;28587;46.794;23.594;2022-12-29T04:44:06;16.20;;;14.45;;
42948;SDS011;28587;46.794;23.594;2022-12-29T04:49:10;16.45;;;14.10;;
42948;SDS011;28587;46.794;23.594;2022-12-29T04:54:34;16.23;;;14.63;;
42948;SDS011;28587;46.794;23.594;2022-12-29T04:59:42;15.98;;;14.27;;
42948;SDS011;28587;46.794;23.594;2022-12-29T05:04:44;15.10;;;13.55;;
42948;SDS011;28587;46.794;23.594;2022-12-29T05:09:46;15.88;;;14.02;;
42948;SDS011;28587;46.794;23.594;2022-12-29T05:14:47;15.80;;;14.05;;
42948;SDS011;28587;46.794;23.594;2022-12-29T05:19:48;15.25;;;13.55;;
42948;SDS011;28587;46.794;23.594;2022-12-29T05:24:49;14.85;;;13.23;;
42948;SDS011;28587;46.794;23.594;2022-12-29T05:29:51;16.02;;;14.32;;
42948;SDS011;28587;46.794;23.594;2022-12-29T05:34:52;15.48;;;13.98;;
42948;SDS011;28587;46.794;23.594;2022-12-29T05:39:53;15.43;;;13.82;;
42948;SDS011;28587;46.794;23.594;2022-12-29T05:44:54;16.50;;;14.82;;
42948;SDS011;28587;46.794;23.594;2022-12-29T05:50:11;15.75;;;14.13;;
42948;SDS011;28587;46.794;23.594;2022-12-29T05:55:42;15.38;;;13.75;;
42948;SDS011;28587;46.794;23.594;2022-12-29T06:00:44;15.50;;;13.90;;
42948;SDS011;28587;46.794;23.594;2022-12-29T06:05:45;16.00;;;14.40;;
42948;SDS011;28587;46.794;23.594;2022-12-29T06:10:49;15.65;;;13.65;;
42948;SDS011;28587;46.794;23.594;2022-12-29T06:15:50;15.38;;;13.88;;
42948;SDS011;28587;46.794;23.594;2022-12-29T06:20:52;14.65;;;13.15;;
42948;SDS011;28587;46.794;23.594;2022-12-29T06:25:53;14.55;;;13.05;;
42948;SDS011;28587;46.794;23.594;2022-12-29T06:30:54;14.18;;;12.77;;
42948;SDS011;28587;46.794;23.594;2022-12-29T06:35:55;15.00;;;13.38;;
42948;SDS011;28587;46.794;23.594;2022-12-29T06:40:56;14.95;;;13.43;;
42948;SDS011;28587;46.794;23.594;2022-12-29T06:46:09;15.07;;;13.48;;
42948;SDS011;28587;46.794;23.594;2022-12-29T06:51:10;14.77;;;13.20;;
42948;SDS011;28587;46.794;23.594;2022-12-29T06:56:11;14.15;;;12.85;;
42948;SDS011;28587;46.794;23.594;2022-12-29T07:01:12;16.40;;;13.75;;
42948;SDS011;28587;46.794;23.594;2022-12-29T07:06:13;14.88;;;13.38;;
42948;SDS011;28587;46.794;23.594;2022-12-29T07:11:14;15.57;;;13.98;;
42948;SDS011;28587;46.794;23.594;2022-12-29T07:16:15;15.65;;;14.02;;
42948;SDS011;28587;46.794;23.594;2022-12-29T07:21:16;14.98;;;13.48;;
42948;SDS011;28587;46.794;23.594;2022-12-29T07:26:17;14.55;;;13.15;;
42948;SDS011;28587;46.794;23.594;2022-12-29T07:31:19;15.27;;;13.68;;
42948;SDS011;28587;46.794;23.594;2022-12-29T07:36:21;14.52;;;12.95;;
42948;SDS011;28587;46.794;23.594;2022-12-29T07:41:22;14.50;;;12.88;;
42948;SDS011;28587;46.794;23.594;2022-12-29T07:46:23;14.38;;;12.88;;
42948;SDS011;28587;46.794;23.594;2022-12-29T07:51:24;14.38;;;12.85;;
42948;SDS011;28587;46.794;23.594;2022-12-29T07:56:26;13.55;;;12.20;;
42948;SDS011;28587;46.794;23.594;2022-12-29T08:01:27;14.95;;;13.45;;
42948;SDS011;28587;46.794;23.594;2022-12-29T08:06:28;15.02;;;13.02;;
42948;SDS011;28587;46.794;23.594;2022-12-29T08:11:30;14.32;;;11.95;;
42948;SDS011;28587;46.794;23.594;2022-12-29T08:16:31;16.60;;;14.15;;
42948;SDS011;28587;46.794;23.594;2022-12-29T08:21:32;15.75;;;13.60;;
42948;SDS011;28587;46.794;23.594;2022-12-29T08:26:33;24.27;;;13.40;;
42948;SDS011;28587;46.794;23.594;2022-12-29T08:31:34;15.50;;;12.52;;
42948;SDS011;28587;46.794;23.594;2022-12-29T08:36:35;13.80;;;12.07;;
42948;SDS011;28587;46.794;23.594;2022-12-29T08:41:36;21.10;;;16.75;;
42948;SDS011;28587;46.794;23.594;2022-12-29T08:46:37;18.25;;;14.05;;
42948;SDS011;28587;46.794;23.594;2022-12-29T08:51:38;18.05;;;14.02;;
42948;SDS011;28587;46.794;23.594;2022-12-29T08:56:39;19.88;;;14.65;;
42948;SDS011;28587;46.794;23.594;2022-12-29T09:01:41;18.00;;;14.82;;
42948;SDS011;28587;46.794;23.594;2022-12-29T09:06:42;18.52;;;14.27;;
42948;SDS011;28587;46.794;23.594;2022-12-29T09:11:44;15.45;;;13.45;;
42948;SDS011;28587;46.794;23.594;2022-12-29T09:16:45;16.98;;;13.88;;
42948;SDS011;28587;46.794;23.594;2022-12-29T09:22:04;19.38;;;14.10;;
42948;SDS011;28587;46.794;23.594;2022-12-29T09:27:05;17.25;;;15.45;;
42948;SDS011;28587;46.794;23.594;2022-12-29T09:32:06;17.33;;;15.02;;
42948;SDS011;28587;46.794;23.594;2022-12-29T09:37:07;20.25;;;15.15;;
42948;SDS011;28587;46.794;23.594;2022-12-29T09:42:19;21.10;;;15.98;;
42948;SDS011;28587;46.794;23.594;2022-12-29T09:47:22;17.33;;;14.73;;
42948;SDS011;28587;46.794;23.594;2022-12-29T09:52:25;17.27;;;14.32;;
42948;SDS011;28587;46.794;23.594;2022-12-29T09:57:52;17.70;;;15.23;;
42948;SDS011;28587;46.794;23.594;2022-12-29T10:03:23;18.58;;;14.43;;
42948;SDS011;28587;46.794;23.594;2022-12-29T10:08:32;15.60;;;13.93;;
42948;SDS011;28587;46.794;23.594;2022-12-29T10:19:39;14.30;;;12.80;;
42948;SDS011;28587;46.794;23.594;2022-12-29T10:24:43;15.00;;;12.90;;
42948;SDS011;28587;46.794;23.594;2022-12-29T10:29:52;17.10;;;13.30;;
42948;SDS011;28587;46.794;23.594;2022-12-29T10:34:57;16.33;;;12.93;;
42948;SDS011;28587;46.794;23.594;2022-12-29T10:40:15;14.93;;;13.07;;
42948;SDS011;28587;46.794;23.594;2022-12-29T10:45:28;14.90;;;13.23;;
42948;SDS011;28587;46.794;23.594;2022-12-29T10:50:30;17.13;;;13.60;;
42948;SDS011;28587;46.794;23.594;2022-12-29T10:55:32;15.73;;;13.88;;
42948;SDS011;28587;46.794;23.594;2022-12-29T11:00:36;17.52;;;13.57;;
42948;SDS011;28587;46.794;23.594;2022-12-29T11:05:40;14.73;;;12.43;;
42948;SDS011;28587;46.794;23.594;2022-12-29T11:10:57;15.80;;;13.43;;
42948;SDS011;28587;46.794;23.594;2022-12-29T11:16:00;14.63;;;13.10;;
42948;SDS011;28587;46.794;23.594;2022-12-29T11:21:04;15.63;;;12.90;;
42948;SDS011;28587;46.794;23.594;2022-12-29T11:26:26;15.77;;;13.13;;
42948;SDS011;28587;46.794;23.594;2022-12-29T11:31:27;15.35;;;12.75;;
42948;SDS011;28587;46.794;23.594;2022-12-29T11:36:28;13.95;;;12.48;;
42948;SDS011;28587;46.794;23.594;2022-12-29T11:41:30;12.77;;;11.48;;
42948;SDS011;28587;46.794;23.594;2022-12-29T11:46:32;13.63;;;11.60;;
42948;SDS011;28587;46.794;23.594;2022-12-29T11:51:43;16.10;;;11.57;;
42948;SDS011;28587;46.794;23.594;2022-12-29T11:56:47;11.88;;;10.63;;
42948;SDS011;28587;46.794;23.594;2022-12-29T12:01:51;13.65;;;10.88;;
42948;SDS011;28587;46.794;23.594;2022-12-29T12:12:34;13.38;;;11.18;;
42948;SDS011;28587;46.794;23.594;2022-12-29T12:17:50;11.73;;;10.15;;
42948;SDS011;28587;46.794;23.594;2022-12-29T12:33:54;11.20;;;10.10;;
42948;SDS011;28587;46.794;23.594;2022-12-29T12:39:14;11.57;;;10.15;;
42948;SDS011;28587;46.794;23.594;2022-12-29T13:26:31;10.88;;;9.80;;
42948;SDS011;28587;46.794;23.594;2022-12-29T13:32:03;10.68;;;9.48;;
42948;SDS011;28587;46.794;23.594;2022-12-29T13:37:32;10.65;;;9.63;;
42948;SDS011;28587;46.794;23.594;2022-12-29T13:42:40;10.57;;;9.48;;
42948;SDS011;28587;46.794;23.594;2022-12-29T13:47:44;11.88;;;10.68;;
42948;SDS011;28587;46.794;23.594;2022-12-29T14:08:15;11.85;;;10.32;;
42948;SDS011;28587;46.794;23.594;2022-12-29T14:13:21;11.00;;;9.93;;
42948;SDS011;28587;46.794;23.594;2022-12-29T14:18:25;11.60;;;10.50;;
42948;SDS011;28587;46.794;23.594;2022-12-29T14:34:28;11.80;;;10.68;;
42948;SDS011;28587;46.794;23.594;2022-12-29T14:39:26;11.68;;;10.55;;
42948;SDS011;28587;46.794;23.594;2022-12-29T14:44:29;11.32;;;10.10;;
42948;SDS011;28587;46.794;23.594;2022-12-29T14:49:31;11.32;;;10.23;;
42948;SDS011;28587;46.794;23.594;2022-12-29T14:55:28;11.30;;;10.20;;
42948;SDS011;28587;46.794;23.594;2022-12-29T15:00:22;12.13;;;10.55;;
42948;SDS011;28587;46.794;23.594;2022-12-29T15:05:37;11.80;;;10.70;;
42948;SDS011;28587;46.794;23.594;2022-12-29T15:16:20;12.77;;;11.57;;
42948;SDS011;28587;46.794;23.594;2022-12-29T15:21:33;14.07;;;11.20;;
42948;SDS011;28587;46.794;23.594;2022-12-29T15:26:36;12.25;;;10.98;;
42948;SDS011;28587;46.794;23.594;2022-12-29T15:31:45;12.90;;;11.60;;
42948;SDS011;28587;46.794;23.594;2022-12-29T15:36:49;12.60;;;11.13;;
42948;SDS011;28587;46.794;23.594;2022-12-29T15:41:53;11.63;;;10.52;;
42948;SDS011;28587;46.794;23.594;2022-12-29T15:47:03;11.93;;;10.73;;
42948;SDS011;28587;46.794;23.594;2022-12-29T15:52:06;12.60;;;11.40;;
42948;SDS011;28587;46.794;23.594;2022-12-29T15:57:19;11.50;;;10.40;;
42948;SDS011;28587;46.794;23.594;2022-12-29T16:02:26;11.95;;;10.50;;
42948;SDS011;28587;46.794;23.594;2022-12-29T16:07:29;11.38;;;9.68;;
42948;SDS011;28587;46.794;23.594;2022-12-29T16:12:33;11.40;;;9.73;;
42948;SDS011;28587;46.794;23.594;2022-12-29T16:17:41;11.38;;;10.18;;
42948;SDS011;28587;46.794;23.594;2022-12-29T16:22:48;11.98;;;9.20;;
42948;SDS011;28587;46.794;23.594;2022-12-29T16:27:54;10.90;;;9.20;;
42948;SDS011;28587;46.794;23.594;2022-12-29T16:32:56;10.80;;;8.80;;
42948;SDS011;28587;46.794;23.594;2022-12-29T16:38:15;9.65;;;8.65;;
42948;SDS011;28587;46.794;23.594;2022-12-29T16:43:25;10.63;;;9.55;;
42948;SDS011;28587;46.794;23.594;2022-12-29T16:48:35;10.68;;;9.25;;
42948;SDS011;28587;46.794;23.594;2022-12-29T16:53:47;10.43;;;9.07;;
42948;SDS011;28587;46.794;23.594;2022-12-29T16:59:37;10.23;;;8.77;;
42948;SDS011;28587;46.794;23.594;2022-12-29T17:04:18;11.38;;;9.25;;
42948;SDS011;28587;46.794;23.594;2022-12-29T17:09:20;8.68;;;7.78;;
42948;SDS011;28587;46.794;23.594;2022-12-29T17:14:43;9.70;;;8.57;;
42948;SDS011;28587;46.794;23.594;2022-12-29T17:19:55;10.38;;;8.05;;
42948;SDS011;28587;46.794;23.594;2022-12-29T17:25:00;10.45;;;8.32;;
42948;SDS011;28587;46.794;23.594;2022-12-29T17:30:04;10.30;;;8.35;;
42948;SDS011;28587;46.794;23.594;2022-12-29T17:35:17;8.85;;;8.02;;
42948;SDS011;28587;46.794;23.594;2022-12-29T17:40:29;8.80;;;8.00;;
42948;SDS011;28587;46.794;23.594;2022-12-29T17:45:32;9.07;;;8.18;;
42948;SDS011;28587;46.794;23.594;2022-12-29T17:50:34;9.85;;;8.38;;
42948;SDS011;28587;46.794;23.594;2022-12-29T17:55:35;8.98;;;8.07;;
42948;SDS011;28587;46.794;23.594;2022-12-29T18:00:36;9.23;;;8.32;;
42948;SDS011;28587;46.794;23.594;2022-12-29T18:05:37;9.68;;;8.77;;
42948;SDS011;28587;46.794;23.594;2022-12-29T18:10:38;10.32;;;8.77;;
42948;SDS011;28587;46.794;23.594;2022-12-29T18:15:39;9.70;;;8.80;;
42948;SDS011;28587;46.794;23.594;2022-12-29T18:20:40;9.73;;;8.73;;
42948;SDS011;28587;46.794;23.594;2022-12-29T18:25:46;10.65;;;9.55;;
42948;SDS011;28587;46.794;23.594;2022-12-29T18:31:00;9.70;;;8.73;;
42948;SDS011;28587;46.794;23.594;2022-12-29T18:36:04;10.30;;;9.30;;
42948;SDS011;28587;46.794;23.594;2022-12-29T18:41:05;11.32;;;10.23;;
42948;SDS011;28587;46.794;23.594;2022-12-29T18:46:17;10.68;;;9.18;;
42948;SDS011;28587;46.794;23.594;2022-12-29T18:51:19;10.38;;;9.32;;
42948;SDS011;28587;46.794;23.594;2022-12-29T18:56:24;11.88;;;10.75;;
42948;SDS011;28587;46.794;23.594;2022-12-29T19:01:26;14.27;;;12.88;;
42948;SDS011;28587;46.794;23.594;2022-12-29T19:06:27;15.70;;;14.18;;
42948;SDS011;28587;46.794;23.594;2022-12-29T19:11:28;13.75;;;12.35;;
42948;SDS011;28587;46.794;23.594;2022-12-29T19:16:29;12.60;;;11.30;;
42948;SDS011;28587;46.794;23.594;2022-12-29T19:21:30;12.57;;;11.10;;
42948;SDS011;28587;46.794;23.594;2022-12-29T19:26:32;11.88;;;10.68;;
42948;SDS011;28587;46.794;23.594;2022-12-29T19:31:36;11.68;;;10.40;;
42948;SDS011;28587;46.794;23.594;2022-12-29T19:36:37;13.82;;;10.32;;
42948;SDS011;28587;46.794;23.594;2022-12-29T19:41:38;12.15;;;10.57;;
42948;SDS011;28587;46.794;23.594;2022-12-29T19:46:39;12.23;;;9.52;;
42948;SDS011;28587;46.794;23.594;2022-12-29T19:51:39;11.38;;;9.80;;
42948;SDS011;28587;46.794;23.594;2022-12-29T19:56:40;11.23;;;9.43;;
42948;SDS011;28587;46.794;23.594;2022-12-29T20:01:43;10.68;;;9.45;;
42948;SDS011;28587;46.794;23.594;2022-12-29T20:06:44;10.60;;;9.35;;
42948;SDS011;28587;46.794;23.594;2022-12-29T20:11:45;10.63;;;9.43;;
42948;SDS011;28587;46.794;23.594;2022-12-29T20:16:46;10.38;;;9.38;;
42948;SDS011;28587;46.794;23.594;2022-12-29T20:21:47;11.68;;;9.57;;
42948;SDS011;28587;46.794;23.594;2022-12-29T20:26:48;11.45;;;9.60;;
42948;SDS011;28587;46.794;23.594;2022-12-29T20:31:52;11.05;;;9.35;;
42948;SDS011;28587;46.794;23.594;2022-12-29T20:36:53;10.18;;;9.00;;
42948;SDS011;28587;46.794;23.594;2022-12-29T20:41:53;14.10;;;9.98;;
42948;SDS011;28587;46.794;23.594;2022-12-29T20:46:54;11.60;;;9.02;;
42948;SDS011;28587;46.794;23.594;2022-12-29T20:51:56;11.73;;;10.07;;
42948;SDS011;28587;46.794;23.594;2022-12-29T20:56:57;10.75;;;9.30;;
42948;SDS011;28587;46.794;23.594;2022-12-29T21:01:58;11.32;;;10.13;;
42948;SDS011;28587;46.794;23.594;2022-12-29T21:06:59;10.77;;;9.25;;
42948;SDS011;28587;46.794;23.594;2022-12-29T21:11:59;10.75;;;9.38;;
42948;SDS011;28587;46.794;23.594;2022-12-29T21:17:01;9.93;;;8.93;;
42948;SDS011;28587;46.794;23.594;2022-12-29T21:22:02;10.40;;;9.30;;
42948;SDS011;28587;46.794;23.594;2022-12-29T21:27:03;10.70;;;9.13;;
42948;SDS011;28587;46.794;23.594;2022-12-29T21:32:05;10.52;;;9.50;;
42948;SDS011;28587;46.794;23.594;2022-12-29T21:37:06;10.60;;;9.50;;
42948;SDS011;28587;46.794;23.594;2022-12-29T21:42:07;9.63;;;8.73;;
42948;SDS011;28587;46.794;23.594;2022-12-29T21:47:08;11.52;;;9.95;;
42948;SDS011;28587;46.794;23.594;2022-12-29T21:52:09;11.18;;;9.63;;
42948;SDS011;28587;46.794;23.594;2022-12-29T21:57:11;15.20;;;9.82;;
42948;SDS011;28587;46.794;23.594;2022-12-29T22:02:33;10.65;;;9.63;;
42948;SDS011;28587;46.794;23.594;2022-12-29T22:07:52;10.25;;;9.23;;
42948;SDS011;28587;46.794;23.594;2022-12-29T22:13:11;9.85;;;8.95;;
42948;SDS011;28587;46.794;23.594;2022-12-29T22:18:12;10.07;;;9.07;;
42948;SDS011;28587;46.794;23.594;2022-12-29T22:23:13;10.10;;;9.05;;
42948;SDS011;28587;46.794;23.594;2022-12-29T22:28:14;10.60;;;9.40;;
42948;SDS011;28587;46.794;23.594;2022-12-29T22:33:16;9.60;;;8.73;;
42948;SDS011;28587;46.794;23.594;2022-12-29T22:38:17;10.00;;;9.07;;
42948;SDS011;28587;46.794;23.594;2022-12-29T22:43:18;10.07;;;8.90;;
42948;SDS011;28587;46.794;23.594;2022-12-29T22:48:19;11.05;;;9.60;;
42948;SDS011;28587;46.794;23.594;2022-12-29T22:53:19;10.48;;;9.25;;
42948;SDS011;28587;46.794;23.594;2022-12-29T22:58:20;10.85;;;9.60;;
42948;SDS011;28587;46.794;23.594;2022-12-29T23:03:21;10.80;;;9.70;;
42948;SDS011;28587;46.794;23.594;2022-12-29T23:08:22;10.73;;;9.63;;
42948;SDS011;28587;46.794;23.594;2022-12-29T23:13:23;10.80;;;9.43;;
42948;SDS011;28587;46.794;23.594;2022-12-29T23:18:25;10.38;;;9.48;;
42948;SDS011;28587;46.794;23.594;2022-12-29T23:23:26;10.90;;;9.25;;
42948;SDS011;28587;46.794;23.594;2022-12-29T23:28:46;10.40;;;9.40;;
42948;SDS011;28587;46.794;23.594;2022-12-29T23:33:47;12.30;;;9.82;;
42948;SDS011;28587;46.794;23.594;2022-12-29T23:38:48;10.90;;;9.80;;
42948;SDS011;28587;46.794;23.594;2022-12-29T23:43:49;10.30;;;9.20;;
42948;SDS011;28587;46.794;23.594;2022-12-29T23:48:50;10.60;;;9.57;;
42948;SDS011;28587;46.794;23.594;2022-12-29T23:53:51;10.88;;;9.85;;
42948;SDS011;28587;46.794;23.594;2022-12-29T23:58:52;10.25;;;9.25;;
